sensor_id;sensor_type;location;lat;lon;timestamp;temperature;humidity
32895;DHT22;19251;49.484;8.260;2024-02-21T00:00:51;12.80;16.40
32895;DHT22;19251;49.484;8.260;2024-02-21T00:05:53;12.90;16.70
32895;DHT22;19251;49.484;8.260;2024-02-21T00:10:55;12.80;16.80
32895;DHT22;19251;49.484;8.260;2024-02-21T00:15:57;12.80;16.80
32895;DHT22;19251;49.484;8.260;2024-02-21T00:20:59;12.90;17.00
32895;DHT22;19251;49.484;8.260;2024-02-21T00:26:03;12.90;17.00
32895;DHT22;19251;49.484;8.260;2024-02-21T00:31:07;12.90;17.00
32895;DHT22;19251;49.484;8.260;2024-02-21T00:36:09;12.80;16.80
32895;DHT22;19251;49.484;8.260;2024-02-21T00:41:11;12.80;17.00
32895;DHT22;19251;49.484;8.260;2024-02-21T00:46:13;12.70;16.90
32895;DHT22;19251;49.484;8.260;2024-02-21T00:56:18;12.70;17.00
32895;DHT22;19251;49.484;8.260;2024-02-21T01:01:23;12.60;17.10
32895;DHT22;19251;49.484;8.260;2024-02-21T01:06:27;12.60;17.10
32895;DHT22;19251;49.484;8.260;2024-02-21T01:11:29;12.60;17.30
32895;DHT22;19251;49.484;8.260;2024-02-21T01:16:31;12.40;17.30
32895;DHT22;19251;49.484;8.260;2024-02-21T01:21:33;12.60;17.40
32895;DHT22;19251;49.484;8.260;2024-02-21T01:26:35;12.50;17.30
32895;DHT22;19251;49.484;8.260;2024-02-21T01:31:37;12.40;17.30
32895;DHT22;19251;49.484;8.260;2024-02-21T01:36:39;12.50;17.40
32895;DHT22;19251;49.484;8.260;2024-02-21T01:41:41;12.40;17.40
32895;DHT22;19251;49.484;8.260;2024-02-21T01:46:43;12.40;17.40
32895;DHT22;19251;49.484;8.260;2024-02-21T01:51:45;12.30;17.40
32895;DHT22;19251;49.484;8.260;2024-02-21T02:01:50;12.30;17.60
32895;DHT22;19251;49.484;8.260;2024-02-21T02:06:54;12.20;17.60
32895;DHT22;19251;49.484;8.260;2024-02-21T02:11:56;12.20;17.60
32895;DHT22;19251;49.484;8.260;2024-02-21T02:17:00;12.20;17.60
32895;DHT22;19251;49.484;8.260;2024-02-21T02:22:06;12.20;17.60
32895;DHT22;19251;49.484;8.260;2024-02-21T02:27:11;12.30;17.80
32895;DHT22;19251;49.484;8.260;2024-02-21T02:32:13;12.20;17.70
32895;DHT22;19251;49.484;8.260;2024-02-21T02:37:15;12.10;17.70
32895;DHT22;19251;49.484;8.260;2024-02-21T02:42:17;12.20;17.80
32895;DHT22;19251;49.484;8.260;2024-02-21T02:47:19;12.20;17.90
32895;DHT22;19251;49.484;8.260;2024-02-21T03:02:26;12.30;18.10
32895;DHT22;19251;49.484;8.260;2024-02-21T03:07:28;12.40;18.10
32895;DHT22;19251;49.484;8.260;2024-02-21T03:12:31;12.20;18.00
32895;DHT22;19251;49.484;8.260;2024-02-21T03:17:33;12.20;18.10
32895;DHT22;19251;49.484;8.260;2024-02-21T03:22:36;12.00;18.00
32895;DHT22;19251;49.484;8.260;2024-02-21T03:27:39;12.10;18.00
32895;DHT22;19251;49.484;8.260;2024-02-21T03:32:41;12.10;18.10
32895;DHT22;19251;49.484;8.260;2024-02-21T03:37:44;12.10;18.20
32895;DHT22;19251;49.484;8.260;2024-02-21T03:42:47;12.00;18.20
32895;DHT22;19251;49.484;8.260;2024-02-21T03:47:49;11.90;18.20
32895;DHT22;19251;49.484;8.260;2024-02-21T03:52:51;12.00;18.40
32895;DHT22;19251;49.484;8.260;2024-02-21T03:57:53;11.90;18.40
32895;DHT22;19251;49.484;8.260;2024-02-21T04:02:55;12.00;18.50
32895;DHT22;19251;49.484;8.260;2024-02-21T04:07:57;11.90;18.60
32895;DHT22;19251;49.484;8.260;2024-02-21T04:13:00;11.90;18.60
32895;DHT22;19251;49.484;8.260;2024-02-21T04:18:02;11.90;18.70
32895;DHT22;19251;49.484;8.260;2024-02-21T04:23:07;12.10;19.00
32895;DHT22;19251;49.484;8.260;2024-02-21T04:28:09;11.90;18.90
32895;DHT22;19251;49.484;8.260;2024-02-21T04:33:11;11.90;19.00
32895;DHT22;19251;49.484;8.260;2024-02-21T04:38:13;11.80;18.90
32895;DHT22;19251;49.484;8.260;2024-02-21T04:48:19;11.60;18.70
32895;DHT22;19251;49.484;8.260;2024-02-21T04:53:22;11.80;19.00
32895;DHT22;19251;49.484;8.260;2024-02-21T04:58:24;11.80;19.00
32895;DHT22;19251;49.484;8.260;2024-02-21T05:03:26;11.60;18.90
32895;DHT22;19251;49.484;8.260;2024-02-21T05:08:28;11.60;18.90
32895;DHT22;19251;49.484;8.260;2024-02-21T05:13:30;11.50;19.10
32895;DHT22;19251;49.484;8.260;2024-02-21T05:18:32;11.40;19.20
32895;DHT22;19251;49.484;8.260;2024-02-21T05:23:35;11.30;19.20
32895;DHT22;19251;49.484;8.260;2024-02-21T05:33:39;11.30;19.40
32895;DHT22;19251;49.484;8.260;2024-02-21T05:38:41;11.30;19.40
32895;DHT22;19251;49.484;8.260;2024-02-21T05:43:43;11.20;19.30
32895;DHT22;19251;49.484;8.260;2024-02-21T05:48:46;11.20;19.30
32895;DHT22;19251;49.484;8.260;2024-02-21T05:53:48;11.10;19.20
32895;DHT22;19251;49.484;8.260;2024-02-21T05:58:50;11.00;19.20
32895;DHT22;19251;49.484;8.260;2024-02-21T06:03:52;11.00;19.30
32895;DHT22;19251;49.484;8.260;2024-02-21T06:08:54;10.90;19.30
32895;DHT22;19251;49.484;8.260;2024-02-21T06:13:57;10.80;19.30
32895;DHT22;19251;49.484;8.260;2024-02-21T06:18:59;10.80;19.30
32895;DHT22;19251;49.484;8.260;2024-02-21T06:24:01;10.70;19.20
32895;DHT22;19251;49.484;8.260;2024-02-21T06:29:04;10.80;19.40
32895;DHT22;19251;49.484;8.260;2024-02-21T06:34:09;10.60;19.30
32895;DHT22;19251;49.484;8.260;2024-02-21T06:39:11;10.50;19.30
32895;DHT22;19251;49.484;8.260;2024-02-21T06:44:13;10.50;19.40
32895;DHT22;19251;49.484;8.260;2024-02-21T06:49:15;10.40;19.40
32895;DHT22;19251;49.484;8.260;2024-02-21T06:54:18;10.60;19.70
32895;DHT22;19251;49.484;8.260;2024-02-21T06:59:20;10.40;19.60
32895;DHT22;19251;49.484;8.260;2024-02-21T07:04:22;10.50;19.80
32895;DHT22;19251;49.484;8.260;2024-02-21T07:09:24;10.50;19.80
32895;DHT22;19251;49.484;8.260;2024-02-21T07:14:28;10.50;19.80
32895;DHT22;19251;49.484;8.260;2024-02-21T07:19:30;10.60;19.90
32895;DHT22;19251;49.484;8.260;2024-02-21T07:24:32;10.60;19.90
32895;DHT22;19251;49.484;8.260;2024-02-21T07:29:34;10.70;19.90
32895;DHT22;19251;49.484;8.260;2024-02-21T07:34:36;10.80;20.00
32895;DHT22;19251;49.484;8.260;2024-02-21T07:39:38;11.10;20.20
32895;DHT22;19251;49.484;8.260;2024-02-21T07:44:40;10.90;20.10
32895;DHT22;19251;49.484;8.260;2024-02-21T07:49:44;11.00;20.10
32895;DHT22;19251;49.484;8.260;2024-02-21T07:54:46;11.20;20.30
32895;DHT22;19251;49.484;8.260;2024-02-21T07:59:48;11.30;20.40
32895;DHT22;19251;49.484;8.260;2024-02-21T08:04:50;11.30;20.40
32895;DHT22;19251;49.484;8.260;2024-02-21T08:09:52;11.40;20.40
32895;DHT22;19251;49.484;8.260;2024-02-21T08:14:54;11.60;20.40
32895;DHT22;19251;49.484;8.260;2024-02-21T08:19:56;11.60;20.20
32895;DHT22;19251;49.484;8.260;2024-02-21T08:24:58;11.70;20.20
32895;DHT22;19251;49.484;8.260;2024-02-21T08:30:01;11.80;20.10
32895;DHT22;19251;49.484;8.260;2024-02-21T08:35:03;11.90;20.10
32895;DHT22;19251;49.484;8.260;2024-02-21T08:40:07;12.00;20.10
32895;DHT22;19251;49.484;8.260;2024-02-21T08:45:10;12.00;20.00
32895;DHT22;19251;49.484;8.260;2024-02-21T08:50:12;12.10;20.10
32895;DHT22;19251;49.484;8.260;2024-02-21T09:00:31;12.20;20.10
32895;DHT22;19251;49.484;8.260;2024-02-21T09:05:33;12.30;20.10
32895;DHT22;19251;49.484;8.260;2024-02-21T09:10:37;12.70;20.30
32895;DHT22;19251;49.484;8.260;2024-02-21T09:15:39;12.60;20.20
32895;DHT22;19251;49.484;8.260;2024-02-21T09:20:41;12.80;20.20
32895;DHT22;19251;49.484;8.260;2024-02-21T09:25:43;13.00;20.10
32895;DHT22;19251;49.484;8.260;2024-02-21T09:30:45;13.10;19.70
32895;DHT22;19251;49.484;8.260;2024-02-21T09:41:00;13.50;19.30
32895;DHT22;19251;49.484;8.260;2024-02-21T09:46:06;13.60;18.90
32895;DHT22;19251;49.484;8.260;2024-02-21T09:51:11;13.70;18.70
32895;DHT22;19251;49.484;8.260;2024-02-21T09:56:15;13.80;18.50
32895;DHT22;19251;49.484;8.260;2024-02-21T10:01:17;13.90;18.50
32895;DHT22;19251;49.484;8.260;2024-02-21T10:06:35;14.00;18.40
32895;DHT22;19251;49.484;8.260;2024-02-21T10:11:39;14.10;18.10
32895;DHT22;19251;49.484;8.260;2024-02-21T10:16:41;14.20;18.00
32895;DHT22;19251;49.484;8.260;2024-02-21T10:21:44;14.30;17.80
32895;DHT22;19251;49.484;8.260;2024-02-21T10:26:47;14.50;17.80
32895;DHT22;19251;49.484;8.260;2024-02-21T10:31:49;14.60;17.70
32895;DHT22;19251;49.484;8.260;2024-02-21T10:36:59;14.70;17.50
32895;DHT22;19251;49.484;8.260;2024-02-21T10:42:01;15.00;17.40
32895;DHT22;19251;49.484;8.260;2024-02-21T10:47:10;14.90;17.00
32895;DHT22;19251;49.484;8.260;2024-02-21T10:52:14;15.40;17.30
32895;DHT22;19251;49.484;8.260;2024-02-21T10:57:17;15.20;17.20
32895;DHT22;19251;49.484;8.260;2024-02-21T11:02:21;15.30;16.90
32895;DHT22;19251;49.484;8.260;2024-02-21T11:07:23;15.40;16.60
32895;DHT22;19251;49.484;8.260;2024-02-21T11:17:29;15.60;16.10
32895;DHT22;19251;49.484;8.260;2024-02-21T11:22:40;15.70;15.70
32895;DHT22;19251;49.484;8.260;2024-02-21T11:27:45;15.80;15.60
32895;DHT22;19251;49.484;8.260;2024-02-21T11:32:48;15.80;15.60
32895;DHT22;19251;49.484;8.260;2024-02-21T11:37:50;15.90;15.40
32895;DHT22;19251;49.484;8.260;2024-02-21T11:42:52;15.80;15.30
32895;DHT22;19251;49.484;8.260;2024-02-21T11:47:54;15.90;15.20
32895;DHT22;19251;49.484;8.260;2024-02-21T11:52:57;16.00;15.20
32895;DHT22;19251;49.484;8.260;2024-02-21T11:57:59;16.20;14.80
32895;DHT22;19251;49.484;8.260;2024-02-21T12:03:01;16.20;14.80
32895;DHT22;19251;49.484;8.260;2024-02-21T12:08:04;16.00;14.40
32895;DHT22;19251;49.484;8.260;2024-02-21T12:13:10;16.10;14.50
32895;DHT22;19251;49.484;8.260;2024-02-21T12:18:12;16.20;14.40
32895;DHT22;19251;49.484;8.260;2024-02-21T12:23:14;16.20;14.20
32895;DHT22;19251;49.484;8.260;2024-02-21T12:28:16;16.20;13.80
32895;DHT22;19251;49.484;8.260;2024-02-21T12:33:19;16.20;13.70
32895;DHT22;19251;49.484;8.260;2024-02-21T12:38:22;16.30;13.50
32895;DHT22;19251;49.484;8.260;2024-02-21T12:43:24;16.20;13.40
32895;DHT22;19251;49.484;8.260;2024-02-21T12:48:26;16.30;13.50
32895;DHT22;19251;49.484;8.260;2024-02-21T12:53:28;16.30;13.50
32895;DHT22;19251;49.484;8.260;2024-02-21T12:58:35;16.40;13.30
32895;DHT22;19251;49.484;8.260;2024-02-21T13:03:37;16.30;12.80
32895;DHT22;19251;49.484;8.260;2024-02-21T13:08:39;16.10;12.80
32895;DHT22;19251;49.484;8.260;2024-02-21T13:13:43;16.30;12.60
32895;DHT22;19251;49.484;8.260;2024-02-21T13:18:45;16.30;12.60
32895;DHT22;19251;49.484;8.260;2024-02-21T13:23:49;16.20;12.40
32895;DHT22;19251;49.484;8.260;2024-02-21T13:28:51;16.30;12.40
32895;DHT22;19251;49.484;8.260;2024-02-21T13:33:53;16.20;12.30
32895;DHT22;19251;49.484;8.260;2024-02-21T13:38:57;16.20;12.40
32895;DHT22;19251;49.484;8.260;2024-02-21T13:43:59;16.30;12.40
32895;DHT22;19251;49.484;8.260;2024-02-21T13:49:04;16.30;12.40
32895;DHT22;19251;49.484;8.260;2024-02-21T13:54:10;16.30;12.40
32895;DHT22;19251;49.484;8.260;2024-02-21T13:59:13;16.30;12.30
32895;DHT22;19251;49.484;8.260;2024-02-21T14:04:15;16.30;12.20
32895;DHT22;19251;49.484;8.260;2024-02-21T14:09:17;16.30;12.20
32895;DHT22;19251;49.484;8.260;2024-02-21T14:14:19;16.20;12.00
32895;DHT22;19251;49.484;8.260;2024-02-21T14:19:21;16.20;12.00
32895;DHT22;19251;49.484;8.260;2024-02-21T14:24:24;16.20;12.00
32895;DHT22;19251;49.484;8.260;2024-02-21T14:29:26;16.20;12.00
32895;DHT22;19251;49.484;8.260;2024-02-21T14:34:28;16.20;12.00
32895;DHT22;19251;49.484;8.260;2024-02-21T14:39:30;16.20;11.80
32895;DHT22;19251;49.484;8.260;2024-02-21T14:49:34;16.20;11.70
32895;DHT22;19251;49.484;8.260;2024-02-21T14:54:37;16.10;11.60
32895;DHT22;19251;49.484;8.260;2024-02-21T14:59:40;15.90;11.50
32895;DHT22;19251;49.484;8.260;2024-02-21T15:04:43;16.00;11.50
32895;DHT22;19251;49.484;8.260;2024-02-21T15:09:45;16.00;11.50
32895;DHT22;19251;49.484;8.260;2024-02-21T15:14:47;16.00;11.50
32895;DHT22;19251;49.484;8.260;2024-02-21T15:19:49;15.90;11.50
32895;DHT22;19251;49.484;8.260;2024-02-21T15:24:52;15.90;11.50
32895;DHT22;19251;49.484;8.260;2024-02-21T15:29:55;15.80;11.50
32895;DHT22;19251;49.484;8.260;2024-02-21T15:34:59;15.70;11.40
32895;DHT22;19251;49.484;8.260;2024-02-21T15:40:01;15.60;11.50
32895;DHT22;19251;49.484;8.260;2024-02-21T15:45:07;15.50;11.50
32895;DHT22;19251;49.484;8.260;2024-02-21T15:50:09;15.50;11.60
32895;DHT22;19251;49.484;8.260;2024-02-21T15:55:14;15.50;11.60
32895;DHT22;19251;49.484;8.260;2024-02-21T16:00:19;15.40;11.60
32895;DHT22;19251;49.484;8.260;2024-02-21T16:05:21;15.20;11.50
32895;DHT22;19251;49.484;8.260;2024-02-21T16:10:23;15.20;11.70
32895;DHT22;19251;49.484;8.260;2024-02-21T16:15:26;15.20;11.80
32895;DHT22;19251;49.484;8.260;2024-02-21T16:20:28;15.00;11.80
32895;DHT22;19251;49.484;8.260;2024-02-21T16:25:30;14.90;11.90
32895;DHT22;19251;49.484;8.260;2024-02-21T16:30:33;14.80;12.10
32895;DHT22;19251;49.484;8.260;2024-02-21T16:35:35;14.60;12.00
32895;DHT22;19251;49.484;8.260;2024-02-21T16:40:39;14.70;12.30
32895;DHT22;19251;49.484;8.260;2024-02-21T16:45:42;14.50;12.50
32895;DHT22;19251;49.484;8.260;2024-02-21T16:50:45;14.30;12.60
32895;DHT22;19251;49.484;8.260;2024-02-21T16:56:01;14.40;12.70
32895;DHT22;19251;49.484;8.260;2024-02-21T17:01:08;14.30;12.90
32895;DHT22;19251;49.484;8.260;2024-02-21T17:06:15;14.20;13.10
32895;DHT22;19251;49.484;8.260;2024-02-21T17:11:20;14.20;13.20
32895;DHT22;19251;49.484;8.260;2024-02-21T17:16:22;14.10;13.30
32895;DHT22;19251;49.484;8.260;2024-02-21T17:21:24;14.00;13.50
32895;DHT22;19251;49.484;8.260;2024-02-21T17:26:29;13.90;13.50
32895;DHT22;19251;49.484;8.260;2024-02-21T17:31:32;14.10;13.90
32895;DHT22;19251;49.484;8.260;2024-02-21T17:36:34;14.00;13.90
32895;DHT22;19251;49.484;8.260;2024-02-21T17:41:36;13.80;13.90
32895;DHT22;19251;49.484;8.260;2024-02-21T17:46:41;13.70;13.90
32895;DHT22;19251;49.484;8.260;2024-02-21T17:51:46;13.70;14.00
32895;DHT22;19251;49.484;8.260;2024-02-21T17:56:49;13.70;14.20
32895;DHT22;19251;49.484;8.260;2024-02-21T18:01:51;13.70;14.20
32895;DHT22;19251;49.484;8.260;2024-02-21T18:06:53;13.60;14.30
32895;DHT22;19251;49.484;8.260;2024-02-21T18:11:57;13.70;14.30
32895;DHT22;19251;49.484;8.260;2024-02-21T18:17:00;13.60;14.40
32895;DHT22;19251;49.484;8.260;2024-02-21T18:22:02;13.60;14.50
32895;DHT22;19251;49.484;8.260;2024-02-21T18:27:05;13.60;14.50
32895;DHT22;19251;49.484;8.260;2024-02-21T18:32:08;13.60;14.60
32895;DHT22;19251;49.484;8.260;2024-02-21T18:37:11;13.60;14.60
32895;DHT22;19251;49.484;8.260;2024-02-21T18:42:16;13.50;14.60
32895;DHT22;19251;49.484;8.260;2024-02-21T18:52:22;13.60;14.70
32895;DHT22;19251;49.484;8.260;2024-02-21T18:57:24;13.60;14.70
32895;DHT22;19251;49.484;8.260;2024-02-21T19:02:27;13.60;14.70
32895;DHT22;19251;49.484;8.260;2024-02-21T19:12:35;13.60;14.90
32895;DHT22;19251;49.484;8.260;2024-02-21T19:17:38;13.60;14.90
32895;DHT22;19251;49.484;8.260;2024-02-21T19:22:41;13.40;14.80
32895;DHT22;19251;49.484;8.260;2024-02-21T19:27:47;13.60;15.10
32895;DHT22;19251;49.484;8.260;2024-02-21T19:32:50;13.60;15.10
32895;DHT22;19251;49.484;8.260;2024-02-21T19:37:53;13.50;15.10
32895;DHT22;19251;49.484;8.260;2024-02-21T19:42:55;13.50;15.20
32895;DHT22;19251;49.484;8.260;2024-02-21T19:47:57;13.50;15.30
32895;DHT22;19251;49.484;8.260;2024-02-21T19:53:01;13.70;15.50
32895;DHT22;19251;49.484;8.260;2024-02-21T19:58:04;13.70;15.50
32895;DHT22;19251;49.484;8.260;2024-02-21T20:03:07;13.50;15.40
32895;DHT22;19251;49.484;8.260;2024-02-21T20:08:09;13.50;15.40
32895;DHT22;19251;49.484;8.260;2024-02-21T20:13:14;13.50;15.50
32895;DHT22;19251;49.484;8.260;2024-02-21T20:18:16;13.50;15.50
32895;DHT22;19251;49.484;8.260;2024-02-21T20:23:18;13.60;15.70
32895;DHT22;19251;49.484;8.260;2024-02-21T20:28:22;13.50;15.90
32895;DHT22;19251;49.484;8.260;2024-02-21T20:33:24;13.50;15.90
32895;DHT22;19251;49.484;8.260;2024-02-21T20:38:26;13.60;16.00
32895;DHT22;19251;49.484;8.260;2024-02-21T20:43:28;13.40;15.80
32895;DHT22;19251;49.484;8.260;2024-02-21T20:48:30;13.60;16.00
32895;DHT22;19251;49.484;8.260;2024-02-21T20:53:33;13.50;15.90
32895;DHT22;19251;49.484;8.260;2024-02-21T20:58:35;13.40;15.90
32895;DHT22;19251;49.484;8.260;2024-02-21T21:03:37;13.40;15.80
32895;DHT22;19251;49.484;8.260;2024-02-21T21:08:40;13.40;15.90
32895;DHT22;19251;49.484;8.260;2024-02-21T21:13:42;13.40;16.10
32895;DHT22;19251;49.484;8.260;2024-02-21T21:18:45;13.70;16.50
32895;DHT22;19251;49.484;8.260;2024-02-21T21:23:47;13.50;16.70
32895;DHT22;19251;49.484;8.260;2024-02-21T21:28:49;13.40;16.70
32895;DHT22;19251;49.484;8.260;2024-02-21T21:33:51;13.40;16.90
32895;DHT22;19251;49.484;8.260;2024-02-21T21:38:53;13.50;17.30
32895;DHT22;19251;49.484;8.260;2024-02-21T21:43:55;13.20;17.20
32895;DHT22;19251;49.484;8.260;2024-02-21T21:54:00;13.40;17.60
32895;DHT22;19251;49.484;8.260;2024-02-21T21:59:02;13.30;17.50
32895;DHT22;19251;49.484;8.260;2024-02-21T22:04:05;13.20;17.40
32895;DHT22;19251;49.484;8.260;2024-02-21T22:09:08;13.40;17.50
32895;DHT22;19251;49.484;8.260;2024-02-21T22:14:11;13.40;17.60
32895;DHT22;19251;49.484;8.260;2024-02-21T22:19:13;13.40;17.60
32895;DHT22;19251;49.484;8.260;2024-02-21T22:24:15;13.40;17.80
32895;DHT22;19251;49.484;8.260;2024-02-21T22:29:18;13.50;18.00
32895;DHT22;19251;49.484;8.260;2024-02-21T22:34:20;13.50;18.20
32895;DHT22;19251;49.484;8.260;2024-02-21T22:39:22;13.50;18.40
32895;DHT22;19251;49.484;8.260;2024-02-21T22:44:25;13.40;18.80
32895;DHT22;19251;49.484;8.260;2024-02-21T22:49:28;13.50;19.00
32895;DHT22;19251;49.484;8.260;2024-02-21T22:54:30;13.50;19.40
32895;DHT22;19251;49.484;8.260;2024-02-21T22:59:32;13.50;19.50
32895;DHT22;19251;49.484;8.260;2024-02-21T23:04:35;13.50;19.80
32895;DHT22;19251;49.484;8.260;2024-02-21T23:09:37;13.50;20.00
32895;DHT22;19251;49.484;8.260;2024-02-21T23:14:39;13.50;20.10
32895;DHT22;19251;49.484;8.260;2024-02-21T23:19:41;13.60;20.30
32895;DHT22;19251;49.484;8.260;2024-02-21T23:24:43;13.60;20.40
32895;DHT22;19251;49.484;8.260;2024-02-21T23:29:46;13.60;20.50
32895;DHT22;19251;49.484;8.260;2024-02-21T23:34:48;13.60;20.50
32895;DHT22;19251;49.484;8.260;2024-02-21T23:39:50;13.60;20.70
32895;DHT22;19251;49.484;8.260;2024-02-21T23:44:54;13.70;20.80
32895;DHT22;19251;49.484;8.260;2024-02-21T23:49:57;13.50;20.80
32895;DHT22;19251;49.484;8.260;2024-02-21T23:54:59;13.70;21.10
